sensor_id;sensor_type;location;lat;lon;timestamp;P1;durP1;ratioP1;P2;durP2;ratioP2
46355;SDS011;32066;49.474;11.106;2023-01-25T00:00:23;22.88;;;12.40;;
46355;SDS011;32066;49.474;11.106;2023-01-25T00:02:50;20.33;;;12.63;;
46355;SDS011;32066;49.474;11.106;2023-01-25T00:05:16;21.20;;;12.80;;
46355;SDS011;32066;49.474;11.106;2023-01-25T00:07:43;21.00;;;13.27;;
46355;SDS011;32066;49.474;11.106;2023-01-25T00:10:10;20.50;;;12.30;;
46355;SDS011;32066;49.474;11.106;2023-01-25T00:12:36;21.25;;;12.63;;
46355;SDS011;32066;49.474;11.106;2023-01-25T00:15:04;19.80;;;11.52;;
46355;SDS011;32066;49.474;11.106;2023-01-25T00:17:32;21.63;;;12.13;;
46355;SDS011;32066;49.474;11.106;2023-01-25T00:19:59;20.35;;;12.13;;
46355;SDS011;32066;49.474;11.106;2023-01-25T00:22:26;21.40;;;12.63;;
46355;SDS011;32066;49.474;11.106;2023-01-25T00:24:53;20.83;;;12.43;;
46355;SDS011;32066;49.474;11.106;2023-01-25T00:27:19;22.65;;;13.38;;
46355;SDS011;32066;49.474;11.106;2023-01-25T00:29:47;20.55;;;12.50;;
46355;SDS011;32066;49.474;11.106;2023-01-25T00:35:19;20.20;;;11.60;;
46355;SDS011;32066;49.474;11.106;2023-01-25T00:37:47;18.92;;;11.70;;
46355;SDS011;32066;49.474;11.106;2023-01-25T00:40:16;20.38;;;12.23;;
46355;SDS011;32066;49.474;11.106;2023-01-25T00:42:43;20.27;;;12.77;;
46355;SDS011;32066;49.474;11.106;2023-01-25T00:45:10;20.33;;;12.27;;
46355;SDS011;32066;49.474;11.106;2023-01-25T00:47:38;19.40;;;11.88;;
46355;SDS011;32066;49.474;11.106;2023-01-25T00:50:06;20.65;;;12.77;;
46355;SDS011;32066;49.474;11.106;2023-01-25T00:52:35;20.42;;;12.35;;
46355;SDS011;32066;49.474;11.106;2023-01-25T00:55:02;18.92;;;12.10;;
46355;SDS011;32066;49.474;11.106;2023-01-25T00:57:30;21.13;;;12.18;;
46355;SDS011;32066;49.474;11.106;2023-01-25T00:59:57;22.38;;;12.43;;
46355;SDS011;32066;49.474;11.106;2023-01-25T01:02:24;18.92;;;11.75;;
46355;SDS011;32066;49.474;11.106;2023-01-25T01:04:52;20.33;;;12.30;;
46355;SDS011;32066;49.474;11.106;2023-01-25T01:07:21;21.63;;;13.00;;
46355;SDS011;32066;49.474;11.106;2023-01-25T01:09:50;21.40;;;12.15;;
46355;SDS011;32066;49.474;11.106;2023-01-25T01:12:17;21.05;;;11.65;;
46355;SDS011;32066;49.474;11.106;2023-01-25T01:14:44;20.23;;;12.18;;
46355;SDS011;32066;49.474;11.106;2023-01-25T01:17:11;21.15;;;12.65;;
46355;SDS011;32066;49.474;11.106;2023-01-25T01:19:38;19.45;;;12.18;;
46355;SDS011;32066;49.474;11.106;2023-01-25T01:22:05;22.38;;;12.52;;
46355;SDS011;32066;49.474;11.106;2023-01-25T01:24:34;21.85;;;13.60;;
46355;SDS011;32066;49.474;11.106;2023-01-25T01:27:01;23.45;;;13.32;;
46355;SDS011;32066;49.474;11.106;2023-01-25T01:29:28;20.83;;;12.70;;
46355;SDS011;32066;49.474;11.106;2023-01-25T01:31:55;20.58;;;12.75;;
46355;SDS011;32066;49.474;11.106;2023-01-25T01:34:23;20.65;;;12.70;;
46355;SDS011;32066;49.474;11.106;2023-01-25T01:36:50;23.58;;;12.65;;
46355;SDS011;32066;49.474;11.106;2023-01-25T01:39:17;22.25;;;12.98;;
46355;SDS011;32066;49.474;11.106;2023-01-25T01:41:45;21.75;;;13.30;;
46355;SDS011;32066;49.474;11.106;2023-01-25T01:44:13;20.48;;;12.00;;
46355;SDS011;32066;49.474;11.106;2023-01-25T01:46:45;21.55;;;12.20;;
46355;SDS011;32066;49.474;11.106;2023-01-25T01:49:20;21.10;;;11.98;;
46355;SDS011;32066;49.474;11.106;2023-01-25T01:51:53;20.63;;;12.35;;
46355;SDS011;32066;49.474;11.106;2023-01-25T01:54:29;21.83;;;12.88;;
46355;SDS011;32066;49.474;11.106;2023-01-25T01:57:03;20.80;;;12.70;;
46355;SDS011;32066;49.474;11.106;2023-01-25T01:59:35;21.55;;;12.38;;
46355;SDS011;32066;49.474;11.106;2023-01-25T02:02:05;20.40;;;12.27;;
46355;SDS011;32066;49.474;11.106;2023-01-25T02:04:32;21.73;;;12.52;;
46355;SDS011;32066;49.474;11.106;2023-01-25T02:07:02;20.70;;;12.48;;
46355;SDS011;32066;49.474;11.106;2023-01-25T02:09:35;21.10;;;12.87;;
46355;SDS011;32066;49.474;11.106;2023-01-25T02:12:04;21.98;;;12.85;;
46355;SDS011;32066;49.474;11.106;2023-01-25T02:14:34;23.00;;;13.30;;
46355;SDS011;32066;49.474;11.106;2023-01-25T02:17:08;20.27;;;12.65;;
46355;SDS011;32066;49.474;11.106;2023-01-25T02:19:37;21.45;;;12.73;;
46355;SDS011;32066;49.474;11.106;2023-01-25T02:22:11;21.13;;;12.95;;
46355;SDS011;32066;49.474;11.106;2023-01-25T02:24:41;20.50;;;12.15;;
46355;SDS011;32066;49.474;11.106;2023-01-25T02:27:16;20.85;;;13.40;;
46355;SDS011;32066;49.474;11.106;2023-01-25T02:29:43;21.30;;;12.55;;
46355;SDS011;32066;49.474;11.106;2023-01-25T02:32:11;20.17;;;11.60;;
46355;SDS011;32066;49.474;11.106;2023-01-25T02:34:38;22.30;;;12.57;;
46355;SDS011;32066;49.474;11.106;2023-01-25T02:37:07;23.35;;;13.13;;
46355;SDS011;32066;49.474;11.106;2023-01-25T02:39:36;19.67;;;11.68;;
46355;SDS011;32066;49.474;11.106;2023-01-25T02:42:03;24.00;;;12.50;;
46355;SDS011;32066;49.474;11.106;2023-01-25T02:44:32;22.05;;;12.20;;
46355;SDS011;32066;49.474;11.106;2023-01-25T02:47:01;20.83;;;12.60;;
46355;SDS011;32066;49.474;11.106;2023-01-25T02:49:28;21.20;;;11.57;;
46355;SDS011;32066;49.474;11.106;2023-01-25T02:51:55;17.92;;;11.65;;
46355;SDS011;32066;49.474;11.106;2023-01-25T02:54:22;20.50;;;12.38;;
46355;SDS011;32066;49.474;11.106;2023-01-25T02:56:50;21.58;;;12.23;;
46355;SDS011;32066;49.474;11.106;2023-01-25T02:59:19;21.25;;;11.85;;
46355;SDS011;32066;49.474;11.106;2023-01-25T03:01:51;18.95;;;11.05;;
46355;SDS011;32066;49.474;11.106;2023-01-25T03:04:18;20.05;;;11.50;;
46355;SDS011;32066;49.474;11.106;2023-01-25T03:06:46;18.73;;;10.82;;
46355;SDS011;32066;49.474;11.106;2023-01-25T03:09:13;18.88;;;11.75;;
46355;SDS011;32066;49.474;11.106;2023-01-25T03:11:44;20.25;;;11.85;;
46355;SDS011;32066;49.474;11.106;2023-01-25T03:14:11;18.40;;;10.20;;
46355;SDS011;32066;49.474;11.106;2023-01-25T03:16:38;17.45;;;10.23;;
46355;SDS011;32066;49.474;11.106;2023-01-25T03:19:06;17.50;;;10.75;;
46355;SDS011;32066;49.474;11.106;2023-01-25T03:21:33;18.48;;;10.55;;
46355;SDS011;32066;49.474;11.106;2023-01-25T03:24:00;18.35;;;10.63;;
46355;SDS011;32066;49.474;11.106;2023-01-25T03:26:34;19.10;;;10.90;;
46355;SDS011;32066;49.474;11.106;2023-01-25T03:29:26;18.98;;;10.73;;
46355;SDS011;32066;49.474;11.106;2023-01-25T03:31:53;15.98;;;10.45;;
46355;SDS011;32066;49.474;11.106;2023-01-25T03:34:21;19.60;;;10.75;;
46355;SDS011;32066;49.474;11.106;2023-01-25T03:36:48;17.25;;;10.10;;
46355;SDS011;32066;49.474;11.106;2023-01-25T03:39:15;18.90;;;10.18;;
46355;SDS011;32066;49.474;11.106;2023-01-25T03:41:42;17.90;;;10.43;;
46355;SDS011;32066;49.474;11.106;2023-01-25T03:44:11;18.50;;;10.88;;
46355;SDS011;32066;49.474;11.106;2023-01-25T03:46:40;16.75;;;9.98;;
46355;SDS011;32066;49.474;11.106;2023-01-25T03:49:07;18.00;;;10.32;;
46355;SDS011;32066;49.474;11.106;2023-01-25T03:51:35;17.95;;;10.38;;
46355;SDS011;32066;49.474;11.106;2023-01-25T03:54:02;18.73;;;10.75;;
46355;SDS011;32066;49.474;11.106;2023-01-25T03:56:30;19.52;;;10.70;;
46355;SDS011;32066;49.474;11.106;2023-01-25T03:59:12;18.50;;;10.63;;
46355;SDS011;32066;49.474;11.106;2023-01-25T04:01:39;19.30;;;10.93;;
46355;SDS011;32066;49.474;11.106;2023-01-25T04:04:06;21.00;;;11.15;;
46355;SDS011;32066;49.474;11.106;2023-01-25T04:06:34;19.30;;;11.20;;
46355;SDS011;32066;49.474;11.106;2023-01-25T04:09:02;18.40;;;10.73;;
46355;SDS011;32066;49.474;11.106;2023-01-25T04:11:36;19.17;;;10.40;;
46355;SDS011;32066;49.474;11.106;2023-01-25T04:14:03;17.83;;;10.65;;
46355;SDS011;32066;49.474;11.106;2023-01-25T04:16:38;18.85;;;10.43;;
46355;SDS011;32066;49.474;11.106;2023-01-25T04:19:29;16.95;;;9.80;;
46355;SDS011;32066;49.474;11.106;2023-01-25T04:22:01;19.20;;;11.20;;
46355;SDS011;32066;49.474;11.106;2023-01-25T04:24:33;18.92;;;11.07;;
46355;SDS011;32066;49.474;11.106;2023-01-25T04:26:59;20.23;;;11.10;;
46355;SDS011;32066;49.474;11.106;2023-01-25T04:29:29;19.50;;;10.88;;
46355;SDS011;32066;49.474;11.106;2023-01-25T04:31:57;18.40;;;10.95;;
46355;SDS011;32066;49.474;11.106;2023-01-25T04:34:24;19.08;;;10.70;;
46355;SDS011;32066;49.474;11.106;2023-01-25T04:36:51;18.63;;;10.45;;
46355;SDS011;32066;49.474;11.106;2023-01-25T04:39:20;19.00;;;10.55;;
46355;SDS011;32066;49.474;11.106;2023-01-25T04:41:46;18.02;;;10.70;;
46355;SDS011;32066;49.474;11.106;2023-01-25T04:44:13;19.65;;;10.30;;
46355;SDS011;32066;49.474;11.106;2023-01-25T04:46:41;16.67;;;9.80;;
46355;SDS011;32066;49.474;11.106;2023-01-25T04:49:07;22.63;;;10.35;;
46355;SDS011;32066;49.474;11.106;2023-01-25T04:51:34;17.85;;;9.77;;
46355;SDS011;32066;49.474;11.106;2023-01-25T04:54:01;16.92;;;9.90;;
46355;SDS011;32066;49.474;11.106;2023-01-25T04:56:30;18.15;;;10.82;;
46355;SDS011;32066;49.474;11.106;2023-01-25T04:58:57;18.58;;;10.23;;
46355;SDS011;32066;49.474;11.106;2023-01-25T05:01:25;16.17;;;9.70;;
46355;SDS011;32066;49.474;11.106;2023-01-25T05:03:52;18.20;;;9.95;;
46355;SDS011;32066;49.474;11.106;2023-01-25T05:06:28;16.85;;;9.50;;
46355;SDS011;32066;49.474;11.106;2023-01-25T05:08:56;18.25;;;10.18;;
46355;SDS011;32066;49.474;11.106;2023-01-25T05:11:23;19.50;;;10.05;;
46355;SDS011;32066;49.474;11.106;2023-01-25T05:13:59;18.53;;;9.83;;
46355;SDS011;32066;49.474;11.106;2023-01-25T05:16:29;16.30;;;9.13;;
46355;SDS011;32066;49.474;11.106;2023-01-25T05:18:57;16.27;;;9.10;;
46355;SDS011;32066;49.474;11.106;2023-01-25T05:21:37;16.95;;;9.25;;
46355;SDS011;32066;49.474;11.106;2023-01-25T05:24:21;15.98;;;9.25;;
46355;SDS011;32066;49.474;11.106;2023-01-25T05:26:48;16.80;;;9.23;;
46355;SDS011;32066;49.474;11.106;2023-01-25T05:29:40;15.93;;;9.48;;
46355;SDS011;32066;49.474;11.106;2023-01-25T05:32:08;18.02;;;9.73;;
46355;SDS011;32066;49.474;11.106;2023-01-25T05:34:37;19.67;;;9.38;;
46355;SDS011;32066;49.474;11.106;2023-01-25T05:37:05;18.58;;;10.40;;
46355;SDS011;32066;49.474;11.106;2023-01-25T05:39:36;18.38;;;9.70;;
46355;SDS011;32066;49.474;11.106;2023-01-25T05:42:07;16.50;;;8.98;;
46355;SDS011;32066;49.474;11.106;2023-01-25T05:44:35;17.88;;;9.40;;
46355;SDS011;32066;49.474;11.106;2023-01-25T05:47:04;17.92;;;9.25;;
46355;SDS011;32066;49.474;11.106;2023-01-25T05:49:31;16.85;;;9.73;;
46355;SDS011;32066;49.474;11.106;2023-01-25T05:51:57;16.17;;;9.80;;
46355;SDS011;32066;49.474;11.106;2023-01-25T05:54:25;18.20;;;9.50;;
46355;SDS011;32066;49.474;11.106;2023-01-25T05:56:59;20.30;;;10.30;;
46355;SDS011;32066;49.474;11.106;2023-01-25T05:59:26;17.13;;;9.25;;
46355;SDS011;32066;49.474;11.106;2023-01-25T06:01:54;18.23;;;10.23;;
46355;SDS011;32066;49.474;11.106;2023-01-25T06:04:22;16.45;;;9.43;;
46355;SDS011;32066;49.474;11.106;2023-01-25T06:06:49;19.48;;;10.63;;
46355;SDS011;32066;49.474;11.106;2023-01-25T06:09:15;17.75;;;10.38;;
46355;SDS011;32066;49.474;11.106;2023-01-25T06:11:44;19.08;;;10.35;;
46355;SDS011;32066;49.474;11.106;2023-01-25T06:14:11;17.25;;;8.98;;
46355;SDS011;32066;49.474;11.106;2023-01-25T06:16:38;18.23;;;10.35;;
46355;SDS011;32066;49.474;11.106;2023-01-25T06:19:30;19.52;;;10.75;;
46355;SDS011;32066;49.474;11.106;2023-01-25T06:22:18;19.17;;;10.40;;
46355;SDS011;32066;49.474;11.106;2023-01-25T06:24:44;18.95;;;10.90;;
46355;SDS011;32066;49.474;11.106;2023-01-25T06:27:11;20.92;;;10.57;;
46355;SDS011;32066;49.474;11.106;2023-01-25T06:29:38;18.60;;;10.82;;
46355;SDS011;32066;49.474;11.106;2023-01-25T06:32:05;18.08;;;9.95;;
46355;SDS011;32066;49.474;11.106;2023-01-25T06:34:33;21.10;;;11.25;;
46355;SDS011;32066;49.474;11.106;2023-01-25T06:37:00;18.23;;;11.00;;
46355;SDS011;32066;49.474;11.106;2023-01-25T06:39:26;20.77;;;11.40;;
46355;SDS011;32066;49.474;11.106;2023-01-25T06:41:53;20.98;;;10.38;;
46355;SDS011;32066;49.474;11.106;2023-01-25T06:44:21;18.63;;;10.70;;
46355;SDS011;32066;49.474;11.106;2023-01-25T06:46:47;20.85;;;10.95;;
46355;SDS011;32066;49.474;11.106;2023-01-25T06:49:14;18.45;;;10.50;;
46355;SDS011;32066;49.474;11.106;2023-01-25T06:51:42;19.92;;;10.73;;
46355;SDS011;32066;49.474;11.106;2023-01-25T06:54:09;19.73;;;10.60;;
46355;SDS011;32066;49.474;11.106;2023-01-25T06:56:36;19.17;;;10.85;;
46355;SDS011;32066;49.474;11.106;2023-01-25T06:59:03;17.35;;;9.88;;
46355;SDS011;32066;49.474;11.106;2023-01-25T07:01:29;18.60;;;10.50;;
46355;SDS011;32066;49.474;11.106;2023-01-25T07:03:57;19.05;;;10.60;;
46355;SDS011;32066;49.474;11.106;2023-01-25T07:06:25;17.80;;;9.93;;
46355;SDS011;32066;49.474;11.106;2023-01-25T07:09:01;18.90;;;10.13;;
46355;SDS011;32066;49.474;11.106;2023-01-25T07:11:29;18.98;;;10.93;;
46355;SDS011;32066;49.474;11.106;2023-01-25T07:13:56;19.27;;;10.27;;
46355;SDS011;32066;49.474;11.106;2023-01-25T07:16:22;23.25;;;10.98;;
46355;SDS011;32066;49.474;11.106;2023-01-25T07:18:49;22.52;;;11.05;;
46355;SDS011;32066;49.474;11.106;2023-01-25T07:21:17;19.80;;;11.70;;
46355;SDS011;32066;49.474;11.106;2023-01-25T07:23:45;20.05;;;10.68;;
46355;SDS011;32066;49.474;11.106;2023-01-25T07:26:15;20.85;;;11.52;;
46355;SDS011;32066;49.474;11.106;2023-01-25T07:28:43;21.50;;;10.82;;
46355;SDS011;32066;49.474;11.106;2023-01-25T07:31:10;19.38;;;11.38;;
46355;SDS011;32066;49.474;11.106;2023-01-25T07:33:37;18.83;;;11.02;;
46355;SDS011;32066;49.474;11.106;2023-01-25T07:36:04;20.25;;;11.10;;
46355;SDS011;32066;49.474;11.106;2023-01-25T07:38:32;19.33;;;11.18;;
46355;SDS011;32066;49.474;11.106;2023-01-25T07:41:00;19.15;;;11.40;;
46355;SDS011;32066;49.474;11.106;2023-01-25T07:43:30;20.35;;;11.82;;
46355;SDS011;32066;49.474;11.106;2023-01-25T07:46:00;21.30;;;11.07;;
46355;SDS011;32066;49.474;11.106;2023-01-25T07:48:28;19.80;;;11.13;;
46355;SDS011;32066;49.474;11.106;2023-01-25T07:50:59;20.13;;;11.60;;
46355;SDS011;32066;49.474;11.106;2023-01-25T07:53:47;19.13;;;11.23;;
46355;SDS011;32066;49.474;11.106;2023-01-25T07:56:15;20.45;;;11.30;;
46355;SDS011;32066;49.474;11.106;2023-01-25T07:58:44;19.02;;;10.60;;
46355;SDS011;32066;49.474;11.106;2023-01-25T08:01:13;19.50;;;11.55;;
46355;SDS011;32066;49.474;11.106;2023-01-25T08:03:41;19.33;;;11.43;;
46355;SDS011;32066;49.474;11.106;2023-01-25T08:06:09;20.25;;;10.43;;
46355;SDS011;32066;49.474;11.106;2023-01-25T08:08:37;19.08;;;11.25;;
46355;SDS011;32066;49.474;11.106;2023-01-25T08:11:06;17.98;;;9.77;;
46355;SDS011;32066;49.474;11.106;2023-01-25T08:13:35;18.08;;;10.15;;
46355;SDS011;32066;49.474;11.106;2023-01-25T08:16:03;19.13;;;10.70;;
46355;SDS011;32066;49.474;11.106;2023-01-25T08:18:31;18.70;;;11.35;;
46355;SDS011;32066;49.474;11.106;2023-01-25T08:20:58;16.42;;;10.10;;
46355;SDS011;32066;49.474;11.106;2023-01-25T08:23:25;18.30;;;10.25;;
46355;SDS011;32066;49.474;11.106;2023-01-25T08:25:53;18.63;;;10.68;;
46355;SDS011;32066;49.474;11.106;2023-01-25T08:28:20;19.45;;;11.05;;
46355;SDS011;32066;49.474;11.106;2023-01-25T08:30:47;18.23;;;10.73;;
46355;SDS011;32066;49.474;11.106;2023-01-25T08:33:15;18.35;;;10.25;;
46355;SDS011;32066;49.474;11.106;2023-01-25T08:35:42;19.10;;;10.50;;
46355;SDS011;32066;49.474;11.106;2023-01-25T08:38:18;22.45;;;12.27;;
46355;SDS011;32066;49.474;11.106;2023-01-25T08:40:45;21.58;;;11.23;;
46355;SDS011;32066;49.474;11.106;2023-01-25T08:43:12;20.13;;;10.85;;
46355;SDS011;32066;49.474;11.106;2023-01-25T08:45:39;21.45;;;11.07;;
46355;SDS011;32066;49.474;11.106;2023-01-25T08:48:05;18.42;;;11.07;;
46355;SDS011;32066;49.474;11.106;2023-01-25T08:50:34;20.00;;;10.77;;
46355;SDS011;32066;49.474;11.106;2023-01-25T08:53:00;19.02;;;10.88;;
46355;SDS011;32066;49.474;11.106;2023-01-25T08:55:27;19.92;;;10.35;;
46355;SDS011;32066;49.474;11.106;2023-01-25T08:57:54;22.83;;;10.88;;
46355;SDS011;32066;49.474;11.106;2023-01-25T09:00:21;19.00;;;11.00;;
46355;SDS011;32066;49.474;11.106;2023-01-25T09:02:48;19.75;;;10.57;;
46355;SDS011;32066;49.474;11.106;2023-01-25T09:05:15;19.85;;;11.68;;
46355;SDS011;32066;49.474;11.106;2023-01-25T09:07:43;18.30;;;10.27;;
46355;SDS011;32066;49.474;11.106;2023-01-25T09:10:10;19.00;;;10.75;;
46355;SDS011;32066;49.474;11.106;2023-01-25T09:12:37;19.45;;;10.60;;
46355;SDS011;32066;49.474;11.106;2023-01-25T09:15:04;17.80;;;10.27;;
46355;SDS011;32066;49.474;11.106;2023-01-25T09:17:31;17.67;;;10.40;;
46355;SDS011;32066;49.474;11.106;2023-01-25T09:19:58;18.17;;;9.88;;
46355;SDS011;32066;49.474;11.106;2023-01-25T09:22:25;19.20;;;10.73;;
46355;SDS011;32066;49.474;11.106;2023-01-25T09:24:53;17.73;;;10.38;;
46355;SDS011;32066;49.474;11.106;2023-01-25T09:27:20;19.45;;;10.43;;
46355;SDS011;32066;49.474;11.106;2023-01-25T09:29:47;17.70;;;10.35;;
46355;SDS011;32066;49.474;11.106;2023-01-25T09:32:15;18.23;;;10.77;;
46355;SDS011;32066;49.474;11.106;2023-01-25T09:34:51;16.90;;;9.65;;
46355;SDS011;32066;49.474;11.106;2023-01-25T09:37:18;16.92;;;10.27;;
46355;SDS011;32066;49.474;11.106;2023-01-25T09:39:44;20.00;;;10.98;;
46355;SDS011;32066;49.474;11.106;2023-01-25T09:42:22;18.20;;;10.27;;
46355;SDS011;32066;49.474;11.106;2023-01-25T09:45:10;18.25;;;9.90;;
46355;SDS011;32066;49.474;11.106;2023-01-25T09:47:46;16.42;;;9.48;;
46355;SDS011;32066;49.474;11.106;2023-01-25T09:50:24;18.15;;;10.52;;
46355;SDS011;32066;49.474;11.106;2023-01-25T09:55:56;17.88;;;10.00;;
46355;SDS011;32066;49.474;11.106;2023-01-25T09:58:26;18.17;;;10.90;;
46355;SDS011;32066;49.474;11.106;2023-01-25T10:03:49;19.80;;;11.68;;
46355;SDS011;32066;49.474;11.106;2023-01-25T10:06:21;19.55;;;11.52;;
46355;SDS011;32066;49.474;11.106;2023-01-25T10:08:54;17.45;;;10.20;;
46355;SDS011;32066;49.474;11.106;2023-01-25T10:11:26;18.33;;;9.90;;
46355;SDS011;32066;49.474;11.106;2023-01-25T10:13:55;19.05;;;9.85;;
46355;SDS011;32066;49.474;11.106;2023-01-25T10:16:24;19.48;;;10.60;;
46355;SDS011;32066;49.474;11.106;2023-01-25T10:18:58;17.25;;;10.32;;
46355;SDS011;32066;49.474;11.106;2023-01-25T10:21:33;18.15;;;10.43;;
46355;SDS011;32066;49.474;11.106;2023-01-25T10:24:13;18.55;;;10.40;;
46355;SDS011;32066;49.474;11.106;2023-01-25T10:26:55;18.23;;;10.23;;
46355;SDS011;32066;49.474;11.106;2023-01-25T10:29:25;19.17;;;11.20;;
46355;SDS011;32066;49.474;11.106;2023-01-25T10:31:54;19.27;;;10.85;;
46355;SDS011;32066;49.474;11.106;2023-01-25T10:34:25;15.52;;;9.32;;
46355;SDS011;32066;49.474;11.106;2023-01-25T10:36:56;18.33;;;10.18;;
46355;SDS011;32066;49.474;11.106;2023-01-25T10:39:27;17.40;;;9.70;;
46355;SDS011;32066;49.474;11.106;2023-01-25T10:41:56;16.15;;;10.00;;
46355;SDS011;32066;49.474;11.106;2023-01-25T10:44:27;19.00;;;10.40;;
46355;SDS011;32066;49.474;11.106;2023-01-25T10:46:55;18.20;;;9.80;;
46355;SDS011;32066;49.474;11.106;2023-01-25T10:49:26;17.88;;;9.73;;
46355;SDS011;32066;49.474;11.106;2023-01-25T10:52:12;17.42;;;10.13;;
46355;SDS011;32066;49.474;11.106;2023-01-25T10:54:41;18.27;;;10.07;;
46355;SDS011;32066;49.474;11.106;2023-01-25T10:57:11;16.80;;;9.90;;
46355;SDS011;32066;49.474;11.106;2023-01-25T10:59:44;17.70;;;9.88;;
46355;SDS011;32066;49.474;11.106;2023-01-25T11:05:23;18.75;;;10.35;;
46355;SDS011;32066;49.474;11.106;2023-01-25T11:07:52;16.73;;;9.70;;
46355;SDS011;32066;49.474;11.106;2023-01-25T11:10:26;15.65;;;9.00;;
46355;SDS011;32066;49.474;11.106;2023-01-25T11:13:10;17.55;;;9.05;;
46355;SDS011;32066;49.474;11.106;2023-01-25T11:15:47;17.45;;;9.18;;
46355;SDS011;32066;49.474;11.106;2023-01-25T11:18:17;20.77;;;10.43;;
46355;SDS011;32066;49.474;11.106;2023-01-25T11:20:46;17.83;;;9.82;;
46355;SDS011;32066;49.474;11.106;2023-01-25T11:23:21;18.42;;;10.20;;
46355;SDS011;32066;49.474;11.106;2023-01-25T11:25:49;16.80;;;9.20;;
46355;SDS011;32066;49.474;11.106;2023-01-25T11:28:18;17.83;;;9.90;;
46355;SDS011;32066;49.474;11.106;2023-01-25T11:30:48;16.88;;;9.40;;
46355;SDS011;32066;49.474;11.106;2023-01-25T11:33:17;18.50;;;10.07;;
46355;SDS011;32066;49.474;11.106;2023-01-25T11:35:54;18.38;;;9.85;;
46355;SDS011;32066;49.474;11.106;2023-01-25T11:38:30;18.90;;;10.52;;
46355;SDS011;32066;49.474;11.106;2023-01-25T11:40:59;21.25;;;10.30;;
46355;SDS011;32066;49.474;11.106;2023-01-25T11:43:45;17.52;;;10.32;;
46355;SDS011;32066;49.474;11.106;2023-01-25T11:46:29;17.25;;;9.52;;
46355;SDS011;32066;49.474;11.106;2023-01-25T11:49:11;20.58;;;10.02;;
46355;SDS011;32066;49.474;11.106;2023-01-25T11:51:48;19.38;;;10.15;;
46355;SDS011;32066;49.474;11.106;2023-01-25T11:54:26;18.10;;;9.85;;
46355;SDS011;32066;49.474;11.106;2023-01-25T11:56:59;16.80;;;9.75;;
46355;SDS011;32066;49.474;11.106;2023-01-25T11:59:37;19.73;;;10.70;;
46355;SDS011;32066;49.474;11.106;2023-01-25T12:02:27;17.70;;;10.05;;
46355;SDS011;32066;49.474;11.106;2023-01-25T12:05:20;18.17;;;10.02;;
46355;SDS011;32066;49.474;11.106;2023-01-25T12:08:00;17.98;;;9.73;;
46355;SDS011;32066;49.474;11.106;2023-01-25T12:10:42;17.10;;;9.60;;
46355;SDS011;32066;49.474;11.106;2023-01-25T12:13:16;23.02;;;11.52;;
46355;SDS011;32066;49.474;11.106;2023-01-25T12:15:56;21.17;;;10.60;;
46355;SDS011;32066;49.474;11.106;2023-01-25T12:21:48;19.15;;;10.10;;
46355;SDS011;32066;49.474;11.106;2023-01-25T12:24:29;16.75;;;10.20;;
46355;SDS011;32066;49.474;11.106;2023-01-25T12:27:09;17.17;;;9.98;;
46355;SDS011;32066;49.474;11.106;2023-01-25T12:29:46;17.48;;;10.52;;
46355;SDS011;32066;49.474;11.106;2023-01-25T12:32:21;17.45;;;9.60;;
46355;SDS011;32066;49.474;11.106;2023-01-25T12:35:00;19.20;;;10.48;;
46355;SDS011;32066;49.474;11.106;2023-01-25T12:37:48;17.55;;;10.10;;
46355;SDS011;32066;49.474;11.106;2023-01-25T12:40:19;22.02;;;10.60;;
46355;SDS011;32066;49.474;11.106;2023-01-25T12:42:51;17.98;;;9.77;;
46355;SDS011;32066;49.474;11.106;2023-01-25T12:45:23;18.83;;;10.57;;
46355;SDS011;32066;49.474;11.106;2023-01-25T12:47:52;16.98;;;10.38;;
46355;SDS011;32066;49.474;11.106;2023-01-25T12:50:22;17.17;;;9.45;;
46355;SDS011;32066;49.474;11.106;2023-01-25T12:53:00;18.83;;;10.02;;
46355;SDS011;32066;49.474;11.106;2023-01-25T12:55:31;19.05;;;9.73;;
46355;SDS011;32066;49.474;11.106;2023-01-25T12:57:59;16.00;;;9.75;;
46355;SDS011;32066;49.474;11.106;2023-01-25T13:00:33;16.38;;;9.40;;
46355;SDS011;32066;49.474;11.106;2023-01-25T13:03:11;17.23;;;10.10;;
46355;SDS011;32066;49.474;11.106;2023-01-25T13:05:47;17.48;;;10.18;;
46355;SDS011;32066;49.474;11.106;2023-01-25T13:08:20;15.43;;;8.63;;
46355;SDS011;32066;49.474;11.106;2023-01-25T13:10:58;16.75;;;9.63;;
46355;SDS011;32066;49.474;11.106;2023-01-25T13:13:35;18.52;;;10.18;;
46355;SDS011;32066;49.474;11.106;2023-01-25T13:19:01;17.60;;;9.50;;
46355;SDS011;32066;49.474;11.106;2023-01-25T13:21:39;16.85;;;9.88;;
46355;SDS011;32066;49.474;11.106;2023-01-25T13:24:14;17.02;;;9.55;;
46355;SDS011;32066;49.474;11.106;2023-01-25T13:26:47;16.83;;;9.43;;
46355;SDS011;32066;49.474;11.106;2023-01-25T13:29:44;16.20;;;9.45;;
46355;SDS011;32066;49.474;11.106;2023-01-25T13:32:12;17.30;;;10.02;;
46355;SDS011;32066;49.474;11.106;2023-01-25T13:34:59;16.67;;;9.13;;
46355;SDS011;32066;49.474;11.106;2023-01-25T13:37:27;17.02;;;9.65;;
46355;SDS011;32066;49.474;11.106;2023-01-25T13:39:57;17.73;;;9.65;;
46355;SDS011;32066;49.474;11.106;2023-01-25T13:42:24;17.58;;;9.43;;
46355;SDS011;32066;49.474;11.106;2023-01-25T13:44:53;17.02;;;9.65;;
46355;SDS011;32066;49.474;11.106;2023-01-25T13:47:22;17.98;;;9.30;;
46355;SDS011;32066;49.474;11.106;2023-01-25T13:49:52;17.30;;;9.82;;
46355;SDS011;32066;49.474;11.106;2023-01-25T13:52:23;17.25;;;10.00;;
46355;SDS011;32066;49.474;11.106;2023-01-25T13:54:53;16.98;;;9.73;;
46355;SDS011;32066;49.474;11.106;2023-01-25T13:57:23;18.13;;;10.38;;
46355;SDS011;32066;49.474;11.106;2023-01-25T13:59:58;17.55;;;10.48;;
46355;SDS011;32066;49.474;11.106;2023-01-25T14:02:26;17.27;;;9.73;;
46355;SDS011;32066;49.474;11.106;2023-01-25T14:04:54;17.92;;;10.43;;
46355;SDS011;32066;49.474;11.106;2023-01-25T14:07:24;18.17;;;9.82;;
46355;SDS011;32066;49.474;11.106;2023-01-25T14:12:32;18.00;;;9.93;;
46355;SDS011;32066;49.474;11.106;2023-01-25T14:15:19;19.25;;;10.25;;
46355;SDS011;32066;49.474;11.106;2023-01-25T14:18:02;20.30;;;10.30;;
46355;SDS011;32066;49.474;11.106;2023-01-25T14:20:40;18.90;;;11.07;;
46355;SDS011;32066;49.474;11.106;2023-01-25T14:23:20;19.38;;;10.40;;
46355;SDS011;32066;49.474;11.106;2023-01-25T14:25:48;16.80;;;9.32;;
46355;SDS011;32066;49.474;11.106;2023-01-25T14:28:17;16.67;;;9.80;;
46355;SDS011;32066;49.474;11.106;2023-01-25T14:30:45;17.13;;;9.52;;
46355;SDS011;32066;49.474;11.106;2023-01-25T14:33:17;20.73;;;10.43;;
46355;SDS011;32066;49.474;11.106;2023-01-25T14:35:47;18.45;;;10.70;;
46355;SDS011;32066;49.474;11.106;2023-01-25T14:38:22;16.95;;;10.25;;
46355;SDS011;32066;49.474;11.106;2023-01-25T14:40:51;16.85;;;9.70;;
46355;SDS011;32066;49.474;11.106;2023-01-25T14:43:22;18.17;;;10.15;;
46355;SDS011;32066;49.474;11.106;2023-01-25T14:45:50;19.13;;;9.60;;
46355;SDS011;32066;49.474;11.106;2023-01-25T14:48:33;16.63;;;9.85;;
46355;SDS011;32066;49.474;11.106;2023-01-25T14:51:08;18.08;;;10.10;;